Weather observations for the past three days for
University of Illinois - Willard
Metric (Imperial)
Date Time (cdt) Wind (kph) Vis. (km) Weather Sky Cond. Temperature (ºC) Relative Humidity Wind Chill (°C) Heat Index (°C) Pressure Precipitation (cm)
Air Dwpt 6 hour altimeter (cm) sea level (mb) 1 hr 3 hr 6 hr
Max. Min.
03 00:53 S 7 16.09 Fair CLR 23.9 21.7 30 23.9 88% 24 76.17 1014.9
02 23:53 S 11 16.09 Fair CLR 25 21.1 79% 26 76.15 1014.5
02 22:53 S 11 16.09 Fair CLR 25 21.7 82% 26 76.15 1014.3
02 21:53 S 11 16.09 Fair CLR 26.1 22.2 79% 28 76.15 1014.3
02 20:53 S 11 16.09 Fair CLR 26.7 22.8 79% 29 76.15 1014.3
02 19:53 S 9 16.09 Fair CLR 27.2 23.9 82% 30 76.1 1013.9
02 18:53 S 7 16.09 Fair CLR 30 26.7 34.4 30 83% 38 76.1 1014.0
02 17:53 S 6 16.09 Fair CLR 33.3 25 62% 41 76.1 1013.9
02 16:53 SW 7 16.09 Fair CLR 34.4 23.3 52% 40 76.12 1014.2
02 15:53 SW 9 16.09 Fair CLR 34.4 23.3 52% 40 76.15 1014.5
02 14:53 S 11 16.09 Mostly Cloudy BKN100 33.9 23.9 56% 40 76.2 1015.1
02 13:53 SW 11 16.09 A Few Clouds FEW100 33.9 23.3 54% 40 76.23 1015.5
02 12:53 SW 11 16.09 Mostly Cloudy BKN100 32.8 23.9 33.3 22.8 59% 39 76.25 1015.8
02 11:53 SW 13 16.09 Fair CLR 32.8 23.3 57% 38 76.28 1016.2
02 10:53 SW 13 16.09 Fair CLR 31.1 23.9 66% 37 76.3 1016.4
02 09:53 SW 13 16.09 Fair CLR 29.4 23.3 70% 34 76.28 1016.3
02 08:53 SW 15 16.09 Fair CLR 27.8 22.2 72% 30 76.28 1016.4
02 07:53 S 9 16.09 Fair CLR 25 22.2 85% 26 76.3 1016.5
02 06:53 S 9 16.09 Fair CLR 22.8 21.1 23.9 21.7 90% 76.28 1016.4
02 05:53 S 9 16.09 Fair CLR 22.2 21.1 94% 76.28 1016.2
02 04:53 S 7 16.09 Fair CLR 21.7 20.6 94% 76.28 1016.0
02 03:53 SW 7 16.09 Fair CLR 22.2 20.6 91% 76.23 1015.6
02 02:53 S 9 16.09 Fair CLR 22.8 20.6 87% 76.23 1015.5
02 01:53 S 9 16.09 Fair CLR 23.3 21.1 88% 76.25 1015.7
02 00:53 S 9 16.09 Fair CLR 23.3 21.1 30.6 23.3 88% 76.25 1015.8
01 23:53 S 11 16.09 Fair CLR 25.6 21.7 79% 27 76.25 1015.7
01 22:53 S 9 16.09 Fair CLR 25.6 22.2 82% 27 76.23 1015.5
01 21:53 SE 7 16.09 Fair CLR 25 23.3 90% 26 76.25 1015.7
01 20:53 SE 7 16.09 Fair CLR 25.6 24.4 93% 27 76.23 1015.5
01 19:53 SE 6 11.27 Fair CLR 26.7 24.4 87% 30 76.17 1015.0
01 18:53 SE 6 16.09 Fair CLR 30.6 26.7 33.9 30.6 80% 39 76.2 1015.2
01 17:53 S 6 16.09 Fair CLR 32.8 25 64% 40 76.2 1015.3
01 16:53 SW 7 16.09 Fair CLR 33.9 23.9 56% 40 76.2 1015.1
01 15:53 SW 9 16.09 Fair CLR 33.9 23.3 54% 40 76.2 1015.3
01 14:53 SW 11 16.09 Fair CLR 33.9 23.3 54% 40 76.23 1015.5
01 13:53 SW 15 16.09 Fair CLR 33.3 23.3 56% 39 76.28 1016.0
01 12:53 W 13 16.09 Fair CLR 32.8 23.3 32.8 21.7 57% 38 76.28 1016.3
01 11:53 SW 13 16.09 Fair CLR 31.7 23.3 61% 37 76.3 1016.6
01 10:53 W 17 16.09 Fair CLR 30.6 22.8 63% 35 76.33 1016.8
01 09:53 SW 13 16.09 Fair CLR 28.9 22.8 70% 32 76.33 1016.7
01 08:53 SW 15 16.09 Fair CLR 26.7 22.2 76% 29 76.3 1016.6
01 07:53 SW 13 16.09 Fair CLR 23.9 21.1 84% 24 76.3 1016.6
01 06:53 S 9 16.09 Fair CLR 21.7 20.6 22.8 21.1 94% 76.28 1016.3
01 05:53 S 7 16.09 Fair CLR 21.7 20.6 94% 76.25 1016.0
01 04:53 S 7 16.09 Fair CLR 21.1 20.6 97% 76.25 1015.9
01 03:53 SW 7 16.09 Fair CLR 21.7 20.6 94% 76.25 1015.7
01 02:53 SW 9 16.09 Fair CLR 21.7 20 90% 76.23 1015.5
01 01:53 S 7 16.09 Fair CLR 21.7 20 90% 76.23 1015.5
01 00:53 S 9 16.09 Fair CLR 22.2 20 28.9 22.2 87% 76.23 1015.6
31 23:53 S 9 16.09 Fair CLR 22.8 20.6 87% 76.23 1015.7
31 22:53 S 11 16.09 Fair CLR 24.4 20.6 79% 25 76.23 1015.5
31 21:53 S 11 16.09 Fair CLR 25 21.1 79% 26 76.23 1015.6
31 20:53 S 9 16.09 Fair CLR 25.6 21.1 76% 27 76.23 1015.4
31 19:53 S 11 16.09 Fair CLR 26.7 21.1 71% 28 76.15 1014.5
31 18:53 S 13 16.09 Fair CLR 29.4 21.1 32.8 29.4 61% 32 76.12 1014.3
31 17:53 S 13 16.09 Fair CLR 31.1 22.2 59% 35 76.15 1014.5
31 16:53 S 11 16.09 Fair CLR 32.2 22.2 56% 36 76.17 1014.8
31 15:53 S 17 G 28 16.09 Fair CLR 32.8 22.2 54% 37 76.17 1014.8
31 14:53 S 11 16.09 Fair CLR 32.8 22.2 54% 37 76.23 1015.4
31 13:53 S 17 16.09 Fair CLR 32.2 21.1 52% 35 76.25 1016.1
31 12:53 S 15 16.09 Fair CLR 31.7 21.1 31.7 19.4 53% 35 76.33 1016.7
31 11:53 S 17 G 30 16.09 Fair CLR 30.6 20.6 55% 33 76.35 1017.1
31 10:53 SW 11 16.09 Fair CLR 29.4 20 57% 31 76.35 1017.3
31 09:53 SW 15 16.09 Fair CLR 27.8 19.4 60% 29 76.33 1017.1
31 08:53 SW 11 16.09 Fair CLR 25.6 19.4 69% 27 76.33 1017.0
31 07:53 Vrbl 7 16.09 Fair CLR 22.8 18.9 79% 76.3 1016.8
31 06:53 S 9 16.09 Fair CLR 19.4 17.8 22.8 18.9 91% 76.28 1016.2
31 05:53 S 9 16.09 Fair CLR 19.4 17.8 91% 76.25 1016.0
31 04:53 S 9 16.09 Fair CLR 20 17.8 87% 76.25 1015.8
31 03:53 S 11 16.09 Fair CLR 21.1 17.8 82% 76.23 1015.5
31 02:53 S 9 16.09 Fair CLR 21.7 17.8 79% 76.23 1015.6
31 01:53 S 9 16.09 Fair CLR 21.1 17.8 82% 76.25 1015.8
Date Time (cdt) Wind (kph) Vis. (km) Weather Sky Cond. Air Dwpt Max. Min. Relative Humidity Wind Chill (°C) Heat Index (°C) altimeter (cm) sea level (mb) 1 hr 3 hr 6 hr
6 hour
Temperature (ºC) Pressure Precipitation (cm)